Flight Track Log - Related Links

Times and Time Zones

All times are in EDT time to prevent confusion due to time zone crossing. See the EGF3773 flight status page for this flight to view local times or setup timezone preferences in your user account.

Time Position Orientation Groundspeed Altitude Reporting Facility
EDT Latitude Longitude Course Direction KTS MPH feet Rate Location/Type
Sat 08:14:56 PM 39.8833 -104.5500 79° East 197 227 7,800  Level Denver TRACON
Sat 08:15:56 PM 39.9000 -104.4667 75° East 244 281 9,100 1,100 Climbing Denver TRACON
Sat 08:16:00 PM 39.9215 -104.2458 73° East  Level FlightAware Approximate
Sat 08:16:56 PM 39.9167 -104.3833 75° East 273 314 10,000  Level Denver TRACON
Sat 08:17:00 PM 39.9534 -104.1076 73° East  Level FlightAware Approximate
Sat 08:17:15 PM 39.9294 -104.3472 65° Northeast 276 318 10,300  Level Denver Center
Sat 08:18:00 PM 39.9720 -103.9673 66° East  Level FlightAware Approximate
Sat 08:18:17 PM 39.9550 -104.2306 74° East 337 388 11,900  Level Denver Center
Sat 08:19:00 PM 39.9984 -103.8279 79° East  Level FlightAware Approximate
Sat 08:19:30 PM 39.9786 -104.0892 78° East 364 419 14,600  Level Denver Center
Sat 08:20:00 PM 40.0284 -103.6850 79° East  Level FlightAware Approximate
Sat 08:20:32 PM 39.9967 -103.9256 82° East 379 436 17,300  Level Denver Center
Sat 08:21:33 PM 40.0181 -103.7872 79° East 387 445 19,300 1,805 Climbing Denver Center
Sat 08:22:35 PM 40.0431 -103.6469 77° East 392 451 21,000 1,707 Climbing Denver Center
Sat 08:23:36 PM 40.0644 -103.5228 77° East 411 473 22,800 1,805 Climbing Denver Center
Sat 08:24:38 PM 40.0903 -103.3422 79° East 429 494 24,700 1,610 Climbing Denver Center
Sat 08:25:39 PM 40.1161 -103.1836 78° East 441 507 26,100 1,328 Climbing Denver Center
Sat 08:26:40 PM 40.1428 -103.0208 78° East 454 522 27,400 1,220 Climbing Denver Center
Sat 08:27:42 PM 40.1683 -102.8536 79° East 463 533 28,600 1,122 Climbing Denver Center
Sat 08:28:43 PM 40.1964 -102.6725 78° East 472 543 29,700 976 Climbing Denver Center
Sat 08:29:45 PM 40.2222 -102.5069 78° East 482 555 30,600 927 Climbing Denver Center
Sat 08:30:46 PM 40.2519 -102.3117 79° East 489 563 31,600 829 Climbing Denver Center
Sat 08:31:48 PM 40.2775 -102.1417 79° East 496 571 32,300 780 Climbing Denver Center
Sat 08:32:49 PM 40.3064 -101.9408 79° East 502 578 33,200 836 Climbing Denver Center
Sat 08:33:50 PM 40.3322 -101.7711 79° East 499 574 34,000 829 Climbing Denver Center
Sat 08:34:52 PM 40.3572 -101.6022 79° East 494 568 34,900 927 Climbing Denver Center
Sat 08:35:53 PM 40.3850 -101.4083 79° East 487 560 35,900 934 Climbing Denver Center
Sat 08:36:54 PM 40.4086 -101.2419 79° East 486 559 36,800 927 Climbing Denver Center
Sat 08:37:56 PM 40.4375 -101.0508 79° East 481 554 37,800 878 Climbing Denver Center
Sat 08:38:57 PM 40.4869 -100.9006 67° East 472 543 38,600 590 Climbing Denver Center
Sat 08:39:58 PM 40.5475 -100.7283 65° Northeast 469 540 39,000 195 Climbing Denver Center
Sat 08:41:00 PM 40.6014 -100.5800 64° Northeast 475 547 39,000  Level Denver Center
Sat 08:42:01 PM 40.6642 -100.4033 65° Northeast 481 554 39,000  Level Denver Center
Sat 08:43:02 PM 40.7175 -100.2550 65° Northeast 475 547 39,000  Level Denver Center
Sat 08:44:04 PM 40.7692 -100.1089 65° Northeast 466 536 39,000  Level Denver Center
Sat 08:45:05 PM 40.8281 -99.9394 65° Northeast 458 527 39,000  Level Denver Center
Sat 08:46:06 PM 40.8817 -99.7886 65° Northeast 458 527 39,000  Level Denver Center
Sat 08:47:08 PM 40.9333 -99.6381 66° East 452 520 39,000  Level Denver Center
Sat 08:48:09 PM 40.9856 -99.4886 65° Northeast 448 516 39,000  Level Denver Center
Sat 08:49:10 PM 41.0267 -99.3683 66° East 447 514 39,000  Level Denver Center
Sat 08:50:23 PM 41.0881 -99.1889 66° East 445 512 39,000  Level Denver Center
Sat 08:51:25 PM 41.1494 -99.0075 66° East 444 511 39,000  Level Denver Center
Sat 08:52:26 PM 41.2061 -98.8361 66° East 450 518 39,000  Level Denver Center
Sat 08:53:27 PM 41.2497 -98.6883 69° East 456 525 39,000  Level Denver Center
Sat 08:54:23 PM 41.2767 -98.5356 77° East 451 519 39,000  Level Minneapolis Center
Sat 08:55:24 PM 41.3083 -98.3617 76° East 451 519 39,000  Level Minneapolis Center
Sat 08:56:26 PM 41.3369 -98.1994 77° East 449 517 39,000  Level Minneapolis Center
Sat 08:57:27 PM 41.3633 -98.0506 77° East 449 517 39,000  Level Minneapolis Center
Sat 08:58:28 PM 41.3917 -97.8883 77° East 449 517 39,000  Level Minneapolis Center
Sat 08:59:30 PM 41.4200 -97.7264 77° East 449 517 39,000  Level Minneapolis Center
Sat 09:00:31 PM 41.4533 -97.5331 77° East 447 514 39,000  Level Minneapolis Center
Sat 09:02:33 PM 41.5081 -97.2119 77° East 443 510 39,000  Level Minneapolis Center
Sat 09:03:35 PM 41.5358 -97.0511 77° East 443 510 39,000  Level Minneapolis Center
Sat 09:04:36 PM 41.5608 -96.8906 78° East 441 507 39,000  Level Minneapolis Center
Sat 09:05:37 PM 41.5878 -96.7308 77° East 441 507 39,000  Level Minneapolis Center
Sat 09:06:38 PM 41.6078 -96.6039 78° East 437 503 39,000  Level Minneapolis Center
Sat 09:07:39 PM 41.6392 -96.4131 78° East 434 499 39,000  Level Minneapolis Center
Sat 09:08:41 PM 41.6639 -96.2575 78° East 427 491 39,000  Level Minneapolis Center
Sat 09:09:42 PM 41.6886 -96.1011 78° East 426 490 39,000  Level Minneapolis Center
Sat 09:10:43 PM 41.7119 -95.9447 79° East 424 488 39,000  Level Minneapolis Center
Sat 09:11:44 PM 41.7361 -95.7914 78° East 420 483 39,000  Level Minneapolis Center
Sat 09:12:45 PM 41.7600 -95.6381 78° East 418 481 39,000  Level Minneapolis Center
Sat 09:13:46 PM 41.7831 -95.4847 79° East 418 481 39,000  Level Minneapolis Center
Sat 09:14:59 PM 41.8058 -95.3322 79° East 417 480 39,000  Level Minneapolis Center
Sat 09:16:00 PM 41.8378 -95.1200 79° East 415 478 39,000  Level Minneapolis Center
Sat 09:17:01 PM 41.8600 -94.9681 79° East 415 478 39,000  Level Minneapolis Center
Sat 09:18:02 PM 41.8825 -94.8136 79° East 419 482 39,000  Level Minneapolis Center
Sat 09:19:03 PM 41.9042 -94.6597 79° East 421 484 39,000  Level Minneapolis Center
Sat 09:20:04 PM 41.9258 -94.5033 79° East 425 489 39,000  Level Minneapolis Center
Sat 09:21:05 PM 41.9481 -94.3494 79° East 422 486 39,000  Level Minneapolis Center
Sat 09:22:06 PM 41.9703 -94.1919 79° East 428 493 39,000  Level Minneapolis Center
Sat 09:23:07 PM 41.9925 -94.0358 79° East 426 490 39,000  Level Minneapolis Center
Sat 09:24:08 PM 42.0156 -93.8664 80° East 427 491 39,000  Level Minneapolis Center
Sat 09:25:08 PM 42.0369 -93.7103 79° East 428 493 39,000  Level Minneapolis Center
Sat 09:26:09 PM 42.0581 -93.5575 79° East 422 486 39,000  Level Minneapolis Center
Sat 09:27:10 PM 42.0775 -93.4047 80° East 419 482 39,000  Level Minneapolis Center
Sat 09:28:11 PM 42.0983 -93.2506 80° East 420 483 39,000  Level Minneapolis Center
Sat 09:29:12 PM 42.1181 -93.0992 80° East 417 480 39,000  Level Minneapolis Center
Sat 09:30:12 PM 42.1381 -92.9478 80° East 416 479 39,000  Level Minneapolis Center
Sat 09:31:13 PM 42.1561 -92.7972 81° East 413 475 39,000  Level Minneapolis Center
Sat 09:32:14 PM 42.1758 -92.6475 80° East 411 473 39,000 -541 Level Minneapolis Center
Sat 09:33:15 PM 42.1939 -92.4967 81° East 411 473 37,900 -1,289 Descending Minneapolis Center
Sat 09:34:15 PM 42.2142 -92.3417 80° East 419 482 36,400 -1,636 Descending Minneapolis Center
Sat 09:35:16 PM 42.2364 -92.1561 81° East 423 487 34,600 -1,574 Descending Minneapolis Center
Sat 09:36:17 PM 42.2547 -92.0006 81° East 425 489 33,200 -793 Descending Minneapolis Center
Sat 09:37:17 PM 42.2736 -91.8450 81° East 425 489 33,000 -99 Descending Minneapolis Center
Sat 09:38:18 PM 42.2917 -91.6864 81° East 431 496 33,000  Level Minneapolis Center
Sat 09:39:19 PM 42.3103 -91.5269 81° East 435 501 33,000  Level Minneapolis Center
Sat 09:40:20 PM 42.3283 -91.3650 81° East 441 507 33,000  Level Minneapolis Center
Sat 09:41:20 PM 42.3461 -91.2053 81° East 439 505 33,000  Level Minneapolis Center
Sat 09:42:21 PM 42.3678 -91.0103 81° East 442 509 33,000  Level Minneapolis Center
Sat 09:43:34 PM 42.3892 -90.8167 81° East 442 509 33,000  Level Chicago Center
Sat 09:44:35 PM 42.4067 -90.6556 82° East 440 506 33,000 -1,033 Level Chicago Center
Sat 09:45:36 PM 42.4231 -90.4906 82° East 445 512 30,900 -2,066 Descending Chicago Center
Sat 09:46:37 PM 42.4289 -90.3264 87° East 443 510 28,800 -2,132 Descending Chicago Center
Sat 09:47:37 PM 42.4236 -90.1603 92° East 447 514 26,600 -2,182 Descending Chicago Center
Sat 09:48:38 PM 42.4206 -90.0003 91° East 436 502 24,400 -2,311 Descending Chicago Center
Sat 09:49:39 PM 42.4169 -89.8222 92° East 419 482 21,900 -2,311 Descending Chicago Center
Sat 09:50:40 PM 42.4125 -89.6675 92° East 414 476 19,700 -2,115 Descending Chicago Center
Sat 09:51:41 PM 42.4083 -89.5231 92° East 392 451 17,600 -2,132 Descending Chicago Center
Sat 09:52:41 PM 42.4044 -89.3889 92° East 365 420 15,400 -2,231 Descending Chicago Center
Sat 09:53:42 PM 42.4008 -89.2600 92° East 345 397 13,100 -2,213 Descending Chicago Center
Sat 09:54:43 PM 42.3961 -89.1306 93° East 345 397 10,900 -1,525 Descending Chicago Center
Sat 09:55:44 PM 42.3914 -89.0061 93° East 334 384 10,000 -446 Descending Chicago Center
Sat 09:56:44 PM 42.3892 -88.8858 91° East 325 374 10,000  Level Chicago Center
Sat 09:57:45 PM 42.3839 -88.7642 93° East 324 373 10,000  Level Chicago Center
Sat 09:58:46 PM 42.3797 -88.6481 93° East 313 360 10,000 -50 Level Chicago Center
Sat 09:59:46 PM 42.3531 -88.5500 110° East 301 346 9,900 -1,091 Descending Chicago Center
Sat 10:00:47 PM 42.2872 -88.4986 150° Southeast 267 307 7,800 -1,475 Descending Chicago Center
Sat 10:01:48 PM 42.2278 -88.4511 149° Southeast 255 293 6,900 -1,041 Descending Chicago Center
Sat 10:02:48 PM 42.1756 -88.4078 148° Southeast 229 264 5,700 -942 Descending Chicago Center
Sat 10:03:49 PM 42.1264 -88.3700 150° Southeast 211 243 5,000 -344 Descending Chicago Center
Sat 10:04:50 PM 42.0828 -88.3367 150° Southeast 190 219 5,000  Level Chicago Center
Sat 10:05:50 PM 42.0392 -88.3053 152° Southeast 181 208 5,000  Level Chicago Center
Sat 10:06:51 PM 41.9869 -88.2672 152° Southeast 179 206 5,000 -496 Level Chicago Center
Sat 10:07:51 PM 41.9664 -88.2106 116° Southeast 173 199 4,000 -595 Descending Chicago Center
Sat 10:08:52 PM 41.9681 -88.1425 88° East 182 209 3,800 -197 Descending Chicago Center

Login

Don't have an account? Register now (free) for customized features, flight alerts, and more!